메인 페이지
METAR-TAF:

METAR-TAF

공항 :

극북의 땅, 그린란드

위도: 76-32N, 경도: 068-42W, 고도: 77m

현재 날씨관측

예보는 32분 전, 06:56시(UTC)에 발표되었습니다.
6kt
온도 -21°C
습도 84%
기압 1004 hPa
시정 10km 이상
맑음

METAR: BGTL 210656Z AUTO 10006KT 9999 CLR M21/M23 A2964 RMK AO2 SNB07E16 SLP028 P0000 T12111230 TSNO $

시각: 04:28 (07:28 UTC)

예보

예보는 14 시간 28분 전, 17:00시(UTC)에 발표되었습니다.
예보 대상 시간: 20일 17시부터 21일 23시까지 (UTC)
남동9kt동북동풍과 풍을 오가는
시정 10km 이상
고도 5000ft 상공 구름 조금
고도 15000ft 상공 구름 보통
전환 중
20일 22시부터 20일 23시까지 (UTC)
남동9kt동북동풍과 풍을 오가는
시정: 9000m
고도 2000ft 상공 구름 많음
고도 3500ft 상공 흐림
약한소낙눈
전환 중
21일 19시부터 21일 20시까지 (UTC)
12kt, 순간 최대 풍속 18kt
시정: 2209m
고도 3000ft 상공 구름 많음

TAF: BGTL 201700Z 2017/2123 13009KT 9999 FEW050 SCT150 QNH2960INS WND 070V170 BECMG 2022/2023 14009KT 9000 -SHSN BKN020 OVC035 610205 QNH2955INS WND 070V170 BECMG 2119/2120 10012G18KT 9999 NSW BKN030 620304 QNH2948INS TXM16/2020Z TNM27/2103Z LAST NO AMDS AFT 2018 NEXT 2209

4,000개 이상의 공항 관측 자료 및 예보 (METAR 및 TAF 보고).

지도상에서 검색 가능한 기상관측소가 노란 점과 빨간 점으로 표시되어 있습니다.

기상관측소 명을 보려면 표시 위로 마우스를 이동하세요.

날씨 관측과 예보를 보려면 클릭하세요.

지도 변경 : 확대하려면 엑스 표시가 있는 녹색 버튼, 축소하려면 빼기 표시가 있는 녹색 버튼, 다음 페이지의 지도를 보려면 녹색 화살표를 클릭하세요.


METAR-TAF: